Terminal Aerodrome Forecast
Issued by NWS

Home | Current Version | Previous Version | Text Only | Print | Product List | Glossary On
Versions: 1 2 3 4 5 6 7 8 9 10 11 12 13 14
000
FTUS43 KBIS 230600 AAA
TAFDIK
TAF AMD
KDIK 230602Z 2306/2406 11021G30KT P6SM VCSH SCT100 OVC140
      TEMPO 2307/2311 -SHRA BKN070 OVC100
     FM231100 13022G26KT P6SM SCT025 OVC100
     FM231500 17017G22KT P6SM VCSH OVC025
     FM231800 25017G24KT P6SM VCSH OVC025
     FM232100 28020G30KT P6SM SCT030 OVC050
     FM240100 25014KT P6SM SCT090=

USA.gov is the U.S. government's official web portal to all federal, state and local government web resources and services.